Time;durP1;ratioP1;P1;durP2;ratioP2;P2;SDS_P1;SDS_P2;PMS_P1;PMS_P2;Temp;Humidity;BMP_temperature;BMP_pressure;BME280_temperature;BME280_humidity;BME280_pressure;Samples;Min_cycle;Max_cycle;Signal;HPM_P1;HPM_P2
2023/12/28 00:00:50;;;;;;;9.57;7.43;;;;;;;8.90;50.05;98813.34;6972092;28;20687;-78
2023/12/28 00:04:13;;;;;;;7.93;6.47;;;;;;;9.09;49.73;98822.38;6972486;28;20258;-78
2023/12/28 00:07:35;;;;;;;5.90;5.00;;;;;;;9.46;47.53;98829.28;6972860;28;20715;-78
2023/12/28 00:10:57;;;;;;;8.50;5.10;;;;;;;9.62;46.88;98821.72;6971401;28;20288;-78
2023/12/28 00:14:18;;;;;;;5.50;4.27;;;;;;;10.22;43.41;98802.13;6973766;28;20245;-78
2023/12/28 00:17:40;;;;;;;5.60;3.47;;;;;;;10.80;40.15;98801.41;6974953;28;20199;-78
2023/12/28 00:21:02;;;;;;;6.50;5.40;;;;;;;10.82;42.05;98819.03;6974194;28;20261;-78
2023/12/28 00:24:24;;;;;;;3.17;2.90;;;;;;;11.42;39.10;98821.50;6971731;28;20315;-79
2023/12/28 00:27:46;;;;;;;3.47;3.13;;;;;;;11.28;40.01;98817.16;6971672;28;20704;-79
2023/12/28 00:31:10;;;;;;;2.83;2.60;;;;;;;11.83;36.91;98830.19;6971172;28;20668;-79
2023/12/28 00:34:31;;;;;;;3.27;2.73;;;;;;;12.72;35.20;98818.31;6963465;28;20234;-79
2023/12/28 00:37:54;;;;;;;2.63;2.43;;;;;;;13.09;33.96;98820.13;6967954;28;20203;-78
2023/12/28 00:41:16;;;;;;;3.57;2.80;;;;;;;13.59;33.11;98831.75;6970859;28;20348;-79
2023/12/28 00:44:37;;;;;;;2.87;2.40;;;;;;;14.15;31.65;98818.84;6971369;28;20295;-79
2023/12/28 00:47:59;;;;;;;2.73;2.53;;;;;;;14.30;31.15;98835.56;6971439;28;20265;-79
2023/12/28 00:51:21;;;;;;;2.00;1.90;;;;;;;14.21;31.04;98826.91;6970691;28;20297;-79
2023/12/28 00:54:43;;;;;;;2.43;2.27;;;;;;;14.29;31.59;98832.03;6971137;28;20253;-79
2023/12/28 00:58:05;;;;;;;2.40;2.20;;;;;;;14.21;30.99;98834.25;6971370;28;20249;-78
2023/12/28 01:01:26;;;;;;;3.20;2.63;;;;;;;14.24;31.76;98833.78;6970249;28;20288;-79
2023/12/28 01:04:48;;;;;;;3.50;2.83;;;;;;;14.34;30.92;98836.78;6971350;28;20649;-80
2023/12/28 01:08:09;;;;;;;2.60;2.40;;;;;;;14.23;31.93;98832.13;6971173;28;20696;-79
2023/12/28 01:11:32;;;;;;;2.67;2.37;;;;;;;13.29;33.97;98853.28;6970409;28;20247;-79
2023/12/28 01:14:54;;;;;;;4.13;3.27;;;;;;;13.65;34.03;98839.84;6970041;28;20213;-80
2023/12/28 01:18:15;;;;;;;4.47;2.67;;;;;;;13.40;35.21;98841.72;6970393;28;20284;-78
2023/12/28 01:21:37;;;;;;;3.13;2.77;;;;;;;13.00;35.42;98853.94;6969966;28;20249;-78
2023/12/28 01:24:58;;;;;;;3.53;3.00;;;;;;;12.15;37.88;98852.72;6970616;28;20241;-79
2023/12/28 01:28:21;;;;;;;3.33;3.03;;;;;;;12.39;37.52;98858.22;6970355;28;20474;-77
2023/12/28 01:31:46;;;;;;;3.10;2.83;;;;;;;12.20;38.30;98861.84;6970034;28;20325;-78
2023/12/28 01:35:08;;;;;;;3.67;3.30;;;;;;;12.19;38.71;98883.66;6969632;28;20638;-77
2023/12/28 01:38:29;;;;;;;3.53;3.23;;;;;;;11.55;39.90;98878.19;6968660;28;20202;-78
2023/12/28 01:41:51;;;;;;;6.23;3.20;;;;;;;11.70;39.14;98869.88;6969652;28;20222;-77
2023/12/28 01:45:14;;;;;;;5.17;3.83;;;;;;;11.40;40.43;98872.16;6969490;28;20356;-77
2023/12/28 01:48:35;;;;;;;3.47;2.90;;;;;;;11.57;40.14;98883.38;6969879;28;20566;-79
2023/12/28 01:51:57;;;;;;;5.83;3.50;;;;;;;10.58;42.36;98889.69;6966333;28;20590;-79
2023/12/28 01:55:20;;;;;;;3.93;3.53;;;;;;;10.97;42.04;98886.25;6939321;28;20215;-79
2023/12/28 01:58:43;;;;;;;3.40;3.10;;;;;;;10.75;42.21;98885.59;6941664;28;20202;-78
2023/12/28 02:02:06;;;;;;;3.47;3.17;;;;;;;10.64;41.64;98885.38;6960472;28;20732;-79
2023/12/28 02:05:27;;;;;;;3.63;3.17;;;;;;;10.68;42.86;98903.63;6968696;28;20349;-80
2023/12/28 02:08:49;;;;;;;4.03;3.30;;;;;;;10.15;43.55;98896.38;6966798;28;20367;-79
2023/12/28 02:12:10;;;;;;;4.33;3.40;;;;;;;10.56;42.59;98893.66;6947315;28;20762;-79
2023/12/28 02:15:32;;;;;;;3.53;3.20;;;;;;;10.49;42.65;98912.50;6956941;28;20235;-79
2023/12/28 02:18:57;;;;;;;4.03;3.10;;;;;;;10.33;43.12;98920.13;6949658;28;20347;-78
2023/12/28 02:22:19;;;;;;;4.17;3.17;;;;;;;9.40;44.73;98937.69;6943940;28;20372;-78
2023/12/28 02:25:42;;;;;;;3.17;2.97;;;;;;;10.39;42.93;98919.31;6967200;28;20211;-79
2023/12/28 02:29:04;;;;;;;3.63;3.33;;;;;;;10.64;41.88;98913.16;6967855;28;20222;-79
2023/12/28 02:32:32;;;;;;;5.53;3.50;;;;;;;9.77;43.28;98911.28;6964887;28;20215;-78
2023/12/28 02:35:58;;;;;;;3.10;2.90;;;;;;;9.69;43.63;98924.06;6941550;28;20676;-79
2023/12/28 02:39:20;;;;;;;4.93;3.13;;;;;;;10.53;43.28;98921.00;6960937;28;20681;-79
2023/12/28 02:42:43;;;;;;;3.17;2.97;;;;;;;10.47;42.98;98906.50;6967318;28;20258;-78
2023/12/28 02:46:04;;;;;;;3.90;2.93;;;;;;;10.38;43.07;98914.91;6944054;28;20293;-79
2023/12/28 02:49:26;;;;;;;3.40;2.60;;;;;;;10.48;43.02;98929.72;6968200;28;20367;-78
2023/12/28 02:52:47;;;;;;;3.60;3.10;;;;;;;10.39;42.85;98908.53;6968636;28;20307;-79
2023/12/28 02:56:09;;;;;;;3.00;2.80;;;;;;;10.58;42.58;98905.88;6956525;28;20359;-79
2023/12/28 02:59:32;;;;;;;3.77;3.10;;;;;;;10.53;42.71;98915.63;6939743;28;20300;-79
2023/12/28 03:02:53;;;;;;;3.00;2.80;;;;;;;10.64;42.10;98902.38;6942073;28;20759;-79
2023/12/28 03:06:15;;;;;;;3.30;3.00;;;;;;;9.90;43.21;98905.97;6940710;28;20207;-79
2023/12/28 03:09:38;;;;;;;3.10;2.80;;;;;;;10.35;42.82;98921.56;6950498;28;20313;-79
2023/12/28 03:13:00;;;;;;;3.30;3.00;;;;;;;9.98;43.83;98913.88;6966071;28;20214;-79
2023/12/28 03:16:23;;;;;;;5.37;2.63;;;;;;;10.36;43.60;98906.22;6966059;28;20212;-79
2023/12/28 03:19:45;;;;;;;5.03;2.87;;;;;;;9.90;44.03;98902.44;6941158;28;20272;-78
2023/12/28 03:23:06;;;;;;;3.33;2.80;;;;;;;10.55;43.39;98921.63;6968196;28;20230;-78
2023/12/28 03:26:28;;;;;;;2.90;2.70;;;;;;;10.44;42.96;98914.13;6964613;28;20211;-79
2023/12/28 03:29:49;;;;;;;2.90;2.70;;;;;;;10.48;43.20;98916.22;6963920;28;20309;-79
2023/12/28 03:33:12;;;;;;;3.60;2.83;;;;;;;10.47;43.04;98913.72;6967757;28;20305;-78
2023/12/28 03:36:33;;;;;;;3.20;2.90;;;;;;;10.76;41.71;98906.16;6959172;28;20308;-79
2023/12/28 03:39:55;;;;;;;3.43;2.70;;;;;;;10.80;42.22;98910.09;6965857;28;20255;-79
2023/12/28 03:43:16;;;;;;;5.17;2.93;;;;;;;10.02;44.05;98909.75;6967807;28;20283;-79
2023/12/28 03:46:38;;;;;;;4.20;3.03;;;;;;;9.87;44.64;98917.13;6967605;28;20305;-78
2023/12/28 03:50:01;;;;;;;3.30;3.00;;;;;;;10.30;44.01;98882.78;6966425;28;20831;-78
2023/12/28 03:53:22;;;;;;;3.30;2.90;;;;;;;9.36;46.13;98912.19;6967861;28;20722;-78
2023/12/28 03:56:44;;;;;;;3.33;3.03;;;;;;;10.25;44.95;98904.94;6963963;28;20301;-79
2023/12/28 04:00:07;;;;;;;2.87;2.67;;;;;;;9.60;45.79;98906.38;6951484;28;20291;-79
2023/12/28 04:03:28;;;;;;;3.03;2.83;;;;;;;10.17;44.46;98894.31;6964675;28;20769;-79
2023/12/28 04:06:51;;;;;;;2.80;2.60;;;;;;;10.23;44.10;98880.06;6945030;28;20293;-78
2023/12/28 04:10:13;;;;;;;3.00;2.80;;;;;;;9.91;45.19;98886.06;6955024;28;20687;-78
2023/12/28 04:13:34;;;;;;;3.27;2.97;;;;;;;9.98;44.94;98851.91;6962507;28;20343;-78
2023/12/28 04:16:56;;;;;;;2.87;2.63;;;;;;;10.00;45.58;98878.66;6963673;28;20333;-79
2023/12/28 04:20:17;;;;;;;3.57;3.00;;;;;;;10.42;44.77;98875.75;6968861;28;20243;-78
2023/12/28 04:23:41;;;;;;;3.03;2.80;;;;;;;10.04;43.51;98848.47;6971477;28;20360;-78
2023/12/28 04:27:03;;;;;;;3.53;3.03;;;;;;;11.04;42.29;98895.22;6970619;28;20285;-78
2023/12/28 04:30:24;;;;;;;3.60;3.10;;;;;;;10.47;44.22;98900.25;6969354;28;20379;-78
2023/12/28 04:33:46;;;;;;;3.00;2.70;;;;;;;11.07;42.25;98892.09;6949616;28;20222;-78
2023/12/28 04:37:07;;;;;;;3.20;2.90;;;;;;;10.36;44.61;98874.72;6971271;28;20356;-78
2023/12/28 04:40:30;;;;;;;3.00;2.70;;;;;;;10.82;43.97;98880.22;6967926;28;20289;-78
2023/12/28 04:43:52;;;;;;;4.13;3.10;;;;;;;10.15;45.50;98874.81;6970108;28;20290;-78
2023/12/28 04:47:13;;;;;;;3.17;2.87;;;;;;;10.65;44.42;98882.47;6970374;28;20299;-79
2023/12/28 04:50:34;;;;;;;4.83;3.43;;;;;;;11.02;43.92;98884.63;6962521;28;20344;-78
2023/12/28 04:53:56;;;;;;;2.93;2.73;;;;;;;10.54;44.31;98874.13;6971330;28;20368;-77
2023/12/28 04:57:19;;;;;;;3.33;3.03;;;;;;;10.43;44.64;98878.25;6967054;28;20723;-78
2023/12/28 05:00:40;;;;;;;3.53;3.23;;;;;;;10.88;43.59;98874.88;6960306;28;20297;-79
2023/12/28 05:04:02;;;;;;;3.60;3.30;;;;;;;10.29;44.35;98863.09;6951447;28;20309;-78
2023/12/28 05:07:23;;;;;;;3.90;3.40;;;;;;;10.61;45.11;98867.75;6943433;28;20882;-78
2023/12/28 05:10:45;;;;;;;4.57;3.00;;;;;;;10.80;44.86;98866.94;6961592;28;20293;-78
2023/12/28 05:14:08;;;;;;;3.40;3.10;;;;;;;10.35;44.80;98862.28;6964722;28;20799;-78
2023/12/28 05:17:29;;;;;;;3.57;3.20;;;;;;;10.82;44.73;98874.84;6968968;28;20300;-79
2023/12/28 05:20:50;;;;;;;3.97;3.67;;;;;;;10.52;45.09;98873.53;6967068;28;20250;-78
2023/12/28 05:24:12;;;;;;;3.00;2.70;;;;;;;10.66;44.68;98886.84;6942990;28;20605;-78
2023/12/28 05:27:33;;;;;;;3.60;3.30;;;;;;;10.78;44.62;98873.56;6942646;28;20349;-78
2023/12/28 05:30:58;;;;;;;4.80;3.27;;;;;;;10.54;45.73;98899.25;6955721;28;20253;-79
2023/12/28 05:34:20;;;;;;;3.00;2.80;;;;;;;10.36;45.74;98893.59;6956817;28;20613;-79
2023/12/28 05:37:41;;;;;;;4.57;3.73;;;;;;;10.33;45.53;98888.59;6952975;28;20290;-79
2023/12/28 05:41:03;;;;;;;3.20;2.90;;;;;;;11.15;43.98;98902.69;6941588;28;20298;-78
2023/12/28 05:44:24;;;;;;;4.33;3.20;;;;;;;10.59;45.00;98912.13;6952629;28;20349;-79
2023/12/28 05:47:48;;;;;;;4.43;3.20;;;;;;;10.91;45.05;98905.97;6967762;28;20233;-79
2023/12/28 05:51:09;;;;;;;4.33;3.50;;;;;;;11.51;44.06;98912.03;6964675;28;20199;-79
2023/12/28 05:54:31;;;;;;;3.73;3.43;;;;;;;10.51;45.84;98915.00;6942433;28;20331;-79
2023/12/28 05:57:52;;;;;;;4.20;3.23;;;;;;;10.96;44.94;98920.50;6942361;28;20278;-79
2023/12/28 06:01:13;;;;;;;4.43;3.33;;;;;;;11.18;44.84;98929.25;6951750;28;20339;-80
2023/12/28 06:04:36;;;;;;;8.20;3.90;;;;;;;11.40;44.09;98936.94;6963418;28;20311;-78
2023/12/28 06:07:58;;;;;;;2.90;2.70;;;;;;;10.94;44.62;98929.84;6941449;28;20361;-78
2023/12/28 06:11:19;;;;;;;3.53;3.23;;;;;;;11.75;43.56;98902.50;6961211;28;20260;-79
2023/12/28 06:14:41;;;;;;;3.30;3.00;;;;;;;12.13;43.10;98925.91;6956940;28;20344;-78
2023/12/28 06:18:04;;;;;;;3.20;2.90;;;;;;;11.69;43.72;98939.25;6965931;28;20198;-78
2023/12/28 06:21:28;;;;;;;4.97;2.93;;;;;;;12.31;42.50;98941.44;6960276;28;20296;-79
2023/12/28 06:24:49;;;;;;;3.13;2.70;;;;;;;11.82;42.91;98951.94;6967086;28;20213;-79
2023/12/28 06:28:11;;;;;;;3.03;2.70;;;;;;;11.92;42.58;98952.34;6967469;28;20325;-78
2023/12/28 06:31:35;;;;;;;2.97;2.77;;;;;;;12.05;42.82;98931.53;6967157;28;20350;-78
2023/12/28 06:34:57;;;;;;;3.13;2.80;;;;;;;12.83;41.72;98943.94;6960825;28;20645;-79
2023/12/28 06:38:20;;;;;;;2.80;2.53;;;;;;;12.63;42.86;98944.03;6943656;28;20230;-78
2023/12/28 06:41:41;;;;;;;6.10;3.00;;;;;;;12.79;42.10;98926.47;6940547;28;20368;-77
2023/12/28 06:45:03;;;;;;;4.07;3.10;;;;;;;12.60;42.58;98954.44;6954214;28;20755;-78
2023/12/28 06:48:26;;;;;;;11.10;6.83;;;;;;;12.12;43.22;98937.78;6967424;28;20234;-77
2023/12/28 06:51:47;;;;;;;9.97;5.67;;;;;;;12.15;43.97;98939.22;6967825;28;20217;-77
2023/12/28 06:55:10;;;;;;;5.63;4.40;;;;;;;11.87;44.17;98925.94;6968700;28;20862;-77
2023/12/28 06:58:32;;;;;;;6.60;4.83;;;;;;;12.52;43.77;98949.28;6969370;28;20729;-78
2023/12/28 07:01:53;;;;;;;8.87;5.33;;;;;;;11.68;45.64;98955.72;6959816;28;20315;-79
2023/12/28 07:05:15;;;;;;;5.07;4.57;;;;;;;12.30;44.86;98964.97;6960991;28;20240;-81
2023/12/28 07:08:37;;;;;;;7.23;4.23;;;;;;;11.75;45.39;98968.13;6964675;28;20229;-80
2023/12/28 07:12:00;;;;;;;5.10;3.93;;;;;;;12.50;44.14;98965.72;6944645;28;20237;-79
2023/12/28 07:15:21;;;;;;;7.53;4.87;;;;;;;12.65;44.40;98949.22;6967141;28;20206;-78
2023/12/28 07:18:43;;;;;;;4.50;4.10;;;;;;;12.36;45.43;98961.41;6966018;28;20887;-79
2023/12/28 07:22:04;;;;;;;4.40;3.90;;;;;;;12.37;45.46;98975.75;6948744;28;20313;-78
2023/12/28 07:25:26;;;;;;;4.20;3.67;;;;;;;12.38;44.95;98972.81;6940900;28;20350;-78
2023/12/28 07:28:49;;;;;;;3.93;3.13;;;;;;;12.15;44.90;98977.88;6954299;28;20229;-77
2023/12/28 07:32:10;;;;;;;4.20;3.37;;;;;;;11.95;45.17;98984.34;6965494;28;20355;-78
2023/12/28 07:35:32;;;;;;;5.60;4.17;;;;;;;12.81;44.31;98989.31;6971118;28;20672;-78
2023/12/28 07:38:53;;;;;;;6.17;4.07;;;;;;;12.93;44.60;98984.91;6972371;28;20336;-78
2023/12/28 07:42:15;;;;;;;5.37;4.20;;;;;;;13.14;44.17;98990.84;6971900;28;22055;-78
2023/12/28 07:45:38;;;;;;;5.30;4.20;;;;;;;12.54;45.72;98976.94;6972047;28;20283;-78
2023/12/28 07:49:00;;;;;;;4.73;3.73;;;;;;;12.40;46.26;98986.16;6972348;28;20238;-78
2023/12/28 07:52:21;;;;;;;4.57;3.93;;;;;;;12.79;45.27;98994.09;6971019;28;20309;-78
2023/12/28 07:55:43;;;;;;;5.63;4.50;;;;;;;12.96;45.25;98995.31;6964505;28;20709;-78
2023/12/28 07:59:06;;;;;;;4.47;3.63;;;;;;;12.52;45.69;99006.88;6955277;28;20203;-78
2023/12/28 08:02:28;;;;;;;6.87;3.83;;;;;;;12.78;45.20;99011.38;6944409;28;20693;-78
2023/12/28 08:05:50;;;;;;;6.87;4.73;;;;;;;12.15;46.76;99010.31;6944602;28;20233;-78
2023/12/28 08:09:12;;;;;;;7.97;5.27;;;;;;;12.76;45.44;99000.78;6951478;28;20309;-78
2023/12/28 08:12:33;;;;;;;4.83;4.10;;;;;;;12.16;47.82;98997.63;6967663;28;20355;-80
2023/12/28 08:15:54;;;;;;;5.73;3.97;;;;;;;12.85;46.66;99002.19;6944290;28;20298;-78
2023/12/28 08:19:17;;;;;;;5.70;3.70;;;;;;;12.87;46.84;99016.34;6947940;28;20335;-78
2023/12/28 08:22:39;;;;;;;5.07;3.47;;;;;;;11.87;49.08;99006.19;6944777;28;20313;-78
2023/12/28 08:26:00;;;;;;;4.53;3.97;;;;;;;11.93;49.46;98991.84;6969989;28;20677;-78
2023/12/28 08:29:22;;;;;;;5.23;4.03;;;;;;;12.56;47.61;98991.09;6967422;28;21256;-78
2023/12/28 08:32:43;;;;;;;5.90;4.20;;;;;;;13.08;47.07;98996.28;6945397;28;20222;-77
2023/12/28 08:36:07;;;;;;;5.03;4.03;;;;;;;13.35;46.40;98995.09;6943189;28;20623;-78
2023/12/28 08:39:29;;;;;;;4.67;3.77;;;;;;;13.36;46.39;99002.19;6943371;28;20342;-79
2023/12/28 08:42:50;;;;;;;4.97;4.13;;;;;;;12.39;48.31;98989.91;6965417;28;20227;-79
2023/12/28 08:46:12;;;;;;;6.43;4.83;;;;;;;12.68;47.21;99006.44;6971277;28;20249;-78
2023/12/28 08:49:34;;;;;;;5.60;3.77;;;;;;;13.57;46.34;99008.06;6953741;28;20313;-77
2023/12/28 08:52:56;;;;;;;3.00;2.70;;;;;;;13.58;46.38;98998.88;6944513;28;20234;-77
2023/12/28 08:56:20;;;;;;;3.37;3.07;;;;;;;13.63;46.77;99009.09;6967344;28;20225;-79
2023/12/28 08:59:41;;;;;;;7.93;3.30;;;;;;;13.15;48.05;99003.34;6962684;28;20784;-77
2023/12/28 09:03:03;;;;;;;3.67;3.13;;;;;;;12.96;48.92;98998.03;6969868;28;20246;-77
2023/12/28 09:06:25;;;;;;;4.03;3.50;;;;;;;12.88;48.66;99015.31;6961775;28;20792;-77
2023/12/28 09:09:47;;;;;;;4.00;3.60;;;;;;;13.48;47.69;99009.41;6964574;28;20241;-77
2023/12/28 09:13:15;;;;;;;5.23;3.73;;;;;;;13.55;47.75;98996.63;6968423;28;20364;-77
2023/12/28 09:16:39;;;;;;;8.20;4.67;;;;;;;13.43;48.39;99011.94;6968490;28;20695;-77
2023/12/28 09:20:01;;;;;;;7.63;5.90;;;;;;;12.81;49.63;99010.97;6969256;28;20304;-77
2023/12/28 09:23:22;;;;;;;5.27;4.10;;;;;;;13.47;48.45;99013.16;6964394;28;20256;-78
2023/12/28 09:26:45;;;;;;;3.97;3.67;;;;;;;13.00;49.48;99020.91;6969889;28;20202;-78
2023/12/28 09:30:08;;;;;;;5.27;4.30;;;;;;;13.20;49.07;99010.81;6969123;28;20229;-77
2023/12/28 09:33:30;;;;;;;5.67;4.27;;;;;;;13.43;48.43;99009.22;6967218;28;20623;-77
2023/12/28 09:36:52;;;;;;;8.03;4.20;;;;;;;12.76;49.91;99014.31;6969214;28;20260;-78
2023/12/28 09:40:14;;;;;;;7.10;3.83;;;;;;;13.28;48.91;99013.28;6968858;28;20210;-77
2023/12/28 09:43:42;;;;;;;4.27;3.87;;;;;;;13.72;47.76;99005.03;6969735;28;20226;-77
2023/12/28 09:47:06;;;;;;;4.70;4.10;;;;;;;13.61;48.08;99014.72;6969358;28;20656;-77
2023/12/28 09:50:28;;;;;;;5.77;3.70;;;;;;;13.74;48.12;99020.03;6953757;28;20242;-78
2023/12/28 09:53:49;;;;;;;6.57;4.43;;;;;;;13.61;49.08;99001.16;6950625;28;20343;-78
2023/12/28 09:57:11;;;;;;;4.67;4.17;;;;;;;13.87;49.29;99013.69;6941381;28;20219;-77
2023/12/28 10:00:34;;;;;;;4.47;3.80;;;;;;;14.00;49.52;99010.88;6940917;28;20241;-78
2023/12/28 10:03:56;;;;;;;6.43;4.10;;;;;;;14.14;48.52;99029.50;6951788;28;20772;-77
2023/12/28 10:07:17;;;;;;;6.67;4.23;;;;;;;14.38;48.06;99022.41;6966456;28;20297;-78
2023/12/28 10:10:39;;;;;;;4.30;3.90;;;;;;;14.47;48.67;99021.94;6968433;28;20713;-77
2023/12/28 10:14:02;;;;;;;5.47;4.20;;;;;;;14.29;48.70;99015.63;6966717;28;20912;-77
2023/12/28 10:17:25;;;;;;;7.83;4.30;;;;;;;14.42;48.19;99016.34;6962120;28;20206;-76
2023/12/28 10:20:50;;;;;;;7.40;5.40;;;;;;;15.07;47.08;99009.31;6961918;28;20206;-78
2023/12/28 10:24:12;;;;;;;7.97;5.53;;;;;;;15.11;47.69;99007.81;6947236;28;20313;-78
2023/12/28 10:27:34;;;;;;;7.93;5.47;;;;;;;14.17;49.84;99026.34;6967744;28;20286;-77
2023/12/28 10:30:56;;;;;;;3.53;3.10;;;;;;;14.50;45.93;99024.19;6967629;28;20222;-78
2023/12/28 10:34:19;;;;;;;3.27;2.90;;;;;;;14.41;44.65;99009.25;6966625;28;20235;-80
2023/12/28 10:37:41;;;;;;;4.60;2.67;;;;;;;14.95;42.94;99022.84;6971655;28;20314;-80
2023/12/28 10:41:04;;;;;;;4.53;2.60;;;;;;;15.40;42.17;98993.44;6968563;28;20210;-80
2023/12/28 10:44:29;;;;;;;10.30;5.53;;;;;;;15.94;43.75;99010.34;6971081;28;20256;-83
2023/12/28 10:47:56;;;;;;;6.60;5.00;;;;;;;15.92;44.16;99008.94;6968757;28;20622;-79
2023/12/28 10:51:21;;;;;;;6.07;5.30;;;;;;;15.90;45.20;98998.28;6968629;28;20697;-80
2023/12/28 10:54:47;;;;;;;12.30;8.73;;;;;;;15.84;46.08;99014.69;6968001;28;20249;-81
2023/12/28 10:58:12;;;;;;;21.03;13.40;;;;;;;15.43;45.85;98996.50;6967100;28;20207;-76
2023/12/28 11:01:37;;;;;;;23.50;12.17;;;;;;;15.61;47.51;99010.03;6966599;28;20211;-78
2023/12/28 11:04:59;;;;;;;17.97;12.33;;;;;;;15.65;47.97;99002.25;6967851;28;20275;-78
2023/12/28 11:08:22;;;;;;;15.97;11.43;;;;;;;15.72;46.93;98983.94;6971042;28;20244;-78
2023/12/28 11:11:44;;;;;;;9.63;8.17;;;;;;;15.08;48.57;98978.38;6972316;28;20261;-79
2023/12/28 11:15:07;;;;;;;13.53;8.77;;;;;;;15.68;47.13;98980.03;6971643;28;20717;-78
2023/12/28 11:18:30;;;;;;;12.10;7.40;;;;;;;15.76;46.79;98985.13;6967286;28;20209;-77
2023/12/28 11:21:52;;;;;;;9.73;7.60;;;;;;;15.76;47.77;98996.81;6945103;28;20224;-79
2023/12/28 11:25:18;;;;;;;10.00;5.17;;;;;;;15.01;47.41;98978.47;6965006;28;20570;-81
2023/12/28 11:28:40;;;;;;;6.23;4.70;;;;;;;14.70;47.91;98973.22;6968738;28;20245;-78
2023/12/28 11:32:02;;;;;;;5.93;4.30;;;;;;;15.17;46.12;98960.72;6964476;28;20226;-76
2023/12/28 11:35:23;;;;;;;6.73;4.33;;;;;;;15.53;44.94;98963.34;6972661;28;20238;-77
2023/12/28 11:38:45;;;;;;;6.83;4.50;;;;;;;15.70;45.61;98970.56;6973057;28;20646;-75
2023/12/28 11:42:08;;;;;;;6.33;4.50;;;;;;;15.50;44.26;98958.34;6971716;28;20301;-76
2023/12/28 11:45:31;;;;;;;7.33;5.30;;;;;;;15.77;44.08;98960.44;6971199;28;20638;-77
2023/12/28 11:48:52;;;;;;;8.63;5.20;;;;;;;16.11;43.74;98959.63;6971921;28;20627;-76
2023/12/28 11:52:23;;;;;;;8.90;5.77;;;;;;;16.14;46.37;98966.47;6971841;28;20324;-76
2023/12/28 11:55:45;;;;;;;7.77;6.33;;;;;;;15.85;48.02;98954.66;6972097;28;20693;-76
2023/12/28 11:59:08;;;;;;;7.37;6.33;;;;;;;15.24;49.21;98910.66;6968798;28;20291;-76
2023/12/28 12:02:30;;;;;;;8.63;6.63;;;;;;;15.94;48.55;98952.41;6968954;28;20820;-76
2023/12/28 12:05:51;;;;;;;11.00;6.07;;;;;;;15.96;48.42;98955.72;6970740;28;20252;-76
2023/12/28 12:09:13;;;;;;;7.17;5.53;;;;;;;15.98;48.53;98953.59;6972121;28;20228;-76
2023/12/28 12:12:34;;;;;;;6.00;5.07;;;;;;;15.95;48.54;98949.47;6971684;28;20230;-76
2023/12/28 12:15:57;;;;;;;6.17;4.80;;;;;;;15.77;47.81;98946.00;6972217;28;20343;-75
2023/12/28 12:19:19;;;;;;;8.00;4.40;;;;;;;15.90;47.98;98948.50;6963142;28;20215;-76
2023/12/28 12:22:40;;;;;;;5.80;5.17;;;;;;;15.82;49.04;98932.53;6970113;28;20310;-75
2023/12/28 12:26:05;;;;;;;5.63;5.07;;;;;;;15.89;48.25;98946.84;6971451;28;20632;-75
2023/12/28 12:29:27;;;;;;;6.30;4.93;;;;;;;15.97;48.56;98946.47;6969264;28;20306;-75
2023/12/28 12:32:50;;;;;;;7.53;4.90;;;;;;;15.94;48.71;98925.22;6971626;28;20723;-75
2023/12/28 12:36:12;;;;;;;9.23;6.17;;;;;;;16.01;48.09;98934.91;6968033;28;20351;-74
2023/12/28 12:39:34;;;;;;;7.33;6.57;;;;;;;16.08;47.39;98932.91;6969251;28;20629;-74
2023/12/28 12:42:56;;;;;;;6.93;6.23;;;;;;;15.92;45.74;98930.06;6970094;28;20234;-74
2023/12/28 12:46:17;;;;;;;8.97;6.37;;;;;;;16.11;46.52;98918.00;6971018;28;20349;-75
2023/12/28 12:49:42;;;;;;;6.27;5.67;;;;;;;16.12;47.40;98900.59;6970075;28;20273;-74
2023/12/28 12:53:06;;;;;;;6.03;5.50;;;;;;;15.95;48.51;98908.66;6970061;28;20233;-74
2023/12/28 12:56:28;;;;;;;5.77;5.17;;;;;;;15.55;50.19;98904.97;6970413;28;20215;-76
2023/12/28 12:59:51;;;;;;;6.97;5.17;;;;;;;15.73;49.69;98909.47;6969706;28;20291;-75
2023/12/28 13:03:12;;;;;;;6.03;5.40;;;;;;;16.00;48.61;98913.38;6970929;28;20271;-73
2023/12/28 13:06:35;;;;;;;7.47;6.17;;;;;;;15.85;48.15;98922.03;6968437;28;20687;-73
2023/12/28 13:09:57;;;;;;;7.77;6.83;;;;;;;15.81;47.62;98914.56;6969378;28;20264;-74
2023/12/28 13:13:18;;;;;;;8.27;6.33;;;;;;;15.91;47.76;98914.78;6967941;28;20317;-74
2023/12/28 13:16:40;;;;;;;9.00;6.30;;;;;;;15.90;47.22;98896.81;6968306;28;20248;-76
2023/12/28 13:20:01;;;;;;;9.07;6.90;;;;;;;15.97;47.89;98909.25;6967239;28;20893;-75
2023/12/28 13:23:24;;;;;;;8.50;7.03;;;;;;;15.59;50.35;98914.31;6969011;28;20230;-74
2023/12/28 13:26:46;;;;;;;9.83;7.73;;;;;;;15.37;50.37;98915.09;6970433;28;20214;-75
2023/12/28 13:30:08;;;;;;;10.30;7.60;;;;;;;15.73;48.94;98926.63;6968353;28;20264;-74
2023/12/28 13:33:30;;;;;;;8.93;7.40;;;;;;;15.77;49.37;98930.53;6942194;28;20229;-74
2023/12/28 13:36:51;;;;;;;9.03;7.57;;;;;;;15.83;49.61;98937.75;6942865;28;20671;-74
2023/12/28 13:40:15;;;;;;;11.13;9.27;;;;;;;15.26;49.71;98919.41;6961932;28;20344;-74
2023/12/28 13:43:36;;;;;;;12.67;8.73;;;;;;;15.77;49.03;98929.69;6969341;28;20628;-76
2023/12/28 13:46:58;;;;;;;10.90;8.50;;;;;;;15.03;51.22;98930.19;6954496;28;20297;-74
2023/12/28 13:50:20;;;;;;;22.13;17.37;;;;;;;15.30;50.83;98936.06;6940957;28;20317;-74
2023/12/28 13:53:41;;;;;;;16.73;10.30;;;;;;;15.72;50.00;98921.41;6941681;28;20224;-76
2023/12/28 13:57:05;;;;;;;9.57;7.60;;;;;;;15.47;50.15;98920.78;6968189;28;20244;-75
2023/12/28 14:00:26;;;;;;;8.90;6.27;;;;;;;15.62;49.26;98913.03;6955679;28;20204;-74
2023/12/28 14:03:51;;;;;;;7.30;5.90;;;;;;;15.75;49.60;98912.81;6957045;28;20713;-74
2023/12/28 14:07:12;;;;;;;9.17;5.63;;;;;;;15.87;49.19;98919.06;6941554;28;20221;-74
2023/12/28 14:10:34;;;;;;;6.93;5.23;;;;;;;15.94;49.12;98901.59;6940645;28;20362;-74
2023/12/28 14:13:57;;;;;;;4.50;3.37;;;;;;;16.06;48.13;98917.88;6963254;28;20239;-75
2023/12/28 14:17:19;;;;;;;4.87;3.30;;;;;;;16.06;47.87;98909.72;6967225;28;20294;-75
2023/12/28 14:20:41;;;;;;;4.93;3.30;;;;;;;16.03;48.81;98911.03;6965061;28;20238;-74
2023/12/28 14:24:03;;;;;;;4.07;2.80;;;;;;;16.18;48.66;98902.38;6957970;28;20354;-76
2023/12/28 14:27:25;;;;;;;4.03;3.17;;;;;;;15.86;49.80;98918.22;6965540;28;20686;-75
2023/12/28 14:30:48;;;;;;;3.00;2.70;;;;;;;16.06;49.07;98896.97;6966930;28;20309;-76
2023/12/28 14:34:10;;;;;;;3.20;2.90;;;;;;;16.07;49.69;98909.50;6965750;28;20267;-75
2023/12/28 14:37:32;;;;;;;3.70;2.87;;;;;;;15.87;50.67;98928.03;6967452;28;20295;-75
2023/12/28 14:40:53;;;;;;;3.37;2.97;;;;;;;15.61;51.67;98927.66;6966008;28;20212;-75
2023/12/28 14:44:15;;;;;;;3.13;2.87;;;;;;;15.45;52.23;98921.00;6967764;28;20372;-76
2023/12/28 14:47:37;;;;;;;3.53;3.23;;;;;;;15.78;52.14;98906.88;6967532;28;20235;-74
2023/12/28 14:50:59;;;;;;;11.70;7.57;;;;;;;15.94;52.52;98912.47;6964734;28;20318;-73
2023/12/28 14:54:20;;;;;;;7.10;5.30;;;;;;;16.03;52.50;98919.19;6965695;28;20310;-74
2023/12/28 14:57:42;;;;;;;6.30;4.30;;;;;;;16.04;52.53;98909.94;6967252;28;20248;-75
2023/12/28 15:01:04;;;;;;;11.50;7.17;;;;;;;15.50;53.84;98912.16;6965618;28;20294;-74
2023/12/28 15:04:26;;;;;;;11.53;7.30;;;;;;;15.83;53.37;98912.44;6939817;28;20282;-74
2023/12/28 15:07:48;;;;;;;13.00;9.27;;;;;;;15.52;54.22;98904.63;6958568;28;20299;-75
2023/12/28 15:11:11;;;;;;;8.03;5.60;;;;;;;15.69;53.42;98900.16;6964934;28;20237;-75
2023/12/28 15:14:33;;;;;;;7.33;5.80;;;;;;;15.86;53.08;98906.53;6967394;28;20238;-74
2023/12/28 15:17:55;;;;;;;5.70;4.97;;;;;;;15.65;53.19;98899.78;6967946;28;20694;-75
2023/12/28 15:21:18;;;;;;;7.20;5.50;;;;;;;15.02;55.60;98900.53;6967741;28;20307;-76
2023/12/28 15:24:40;;;;;;;7.27;5.50;;;;;;;15.55;53.27;98885.09;6966915;28;20320;-74
2023/12/28 15:28:02;;;;;;;8.13;5.80;;;;;;;15.55;53.48;98882.38;6965312;28;20296;-74
2023/12/28 15:31:24;;;;;;;9.13;6.30;;;;;;;15.62;53.61;98888.56;6967029;28;20226;-74
2023/12/28 15:34:45;;;;;;;6.23;5.40;;;;;;;15.39;54.56;98885.81;6967722;28;20214;-74
2023/12/28 15:38:08;;;;;;;6.30;4.00;;;;;;;14.85;54.84;98883.25;6968016;28;20742;-74
2023/12/28 15:41:30;;;;;;;4.27;3.80;;;;;;;14.87;54.97;98890.09;6966056;28;20236;-74
2023/12/28 15:44:51;;;;;;;3.30;2.80;;;;;;;15.30;53.41;98892.59;6963099;28;20300;-75
2023/12/28 15:48:13;;;;;;;3.47;3.17;;;;;;;15.15;53.77;98895.75;6966780;28;20210;-75
2023/12/28 15:51:35;;;;;;;2.80;2.60;;;;;;;15.07;53.43;98908.84;6966921;28;20227;-74